Main page
METAR-TAF:

METAR-TAF

Airports :

Split, Croatia

Split Airport

latitude: 43-32N, longitude: 016-18E, elevation: 19 m

Current weather observation

The report was made 33 minutes ago, at 02:30 UTC
Wind 1 kt from variable directions
Temperature 17°C
Humidity 55%
Pressure 1020 hPa
Visibility 10 km or more
no clouds below 1500 m and no cumulonimbus

METAR: LDSP 280230Z AUTO VRB01KT CAVOK 17/08 Q1020 NOSIG

Time: 05:03 (03:03 UTC)

Forecast

The report was made 3 hours and 38 minutes ago, at 23:25 UTC
Forecast valid from 28 at 00 UTC to 28 at 24 UTC
Wind 2 kt from variable directions
Visibility 10 km or more
no clouds below 1500 m and no cumulonimbus
Becoming
from 28 at 10 UTC to 28 at 12 UTC
Wind 10 kt from the Southwest
Becoming
from 28 at 16 UTC to 28 at 18 UTC
Wind 8 kt from the Northeast

TAF: LDSP 272325Z 2800/2824 VRB02KT CAVOK TX28/2812Z TN16/2803Z BECMG 2810/2812 23010KT BECMG 2816/2818 05008KT

Weather observations and forecasts of more than 4000 airports (METAR and TAF reports).

The available stations are represented by yellow and red dots on the map.

Hover mouse over dot to see the name of the station.

Then click to see weather observations and forecasts.

To change the map : click on the green buttons with a black cross to zoom in, on the green button with a dash to zoom out, or on the green arrows for adjacent maps.


METAR-TAF: